sensor_id;sensor_type;location;lat;lon;timestamp;P1;durP1;ratioP1;P2;durP2;ratioP2
43487;SDS011;29078;41.932;25.554;2023-02-04T00:02:15;32.37;;;23.20;;
43487;SDS011;29078;41.932;25.554;2023-02-04T00:04:41;30.30;;;21.83;;
43487;SDS011;29078;41.932;25.554;2023-02-04T00:07:06;30.90;;;22.13;;
43487;SDS011;29078;41.932;25.554;2023-02-04T00:09:31;38.63;;;25.60;;
43487;SDS011;29078;41.932;25.554;2023-02-04T00:11:57;30.23;;;22.03;;
43487;SDS011;29078;41.932;25.554;2023-02-04T00:14:22;32.97;;;23.03;;
43487;SDS011;29078;41.932;25.554;2023-02-04T00:16:47;35.77;;;23.47;;
43487;SDS011;29078;41.932;25.554;2023-02-04T00:19:13;46.27;;;30.17;;
43487;SDS011;29078;41.932;25.554;2023-02-04T00:21:38;31.93;;;21.50;;
43487;SDS011;29078;41.932;25.554;2023-02-04T00:24:04;39.67;;;26.17;;
43487;SDS011;29078;41.932;25.554;2023-02-04T00:26:29;38.57;;;26.77;;
43487;SDS011;29078;41.932;25.554;2023-02-04T00:28:54;33.67;;;22.37;;
43487;SDS011;29078;41.932;25.554;2023-02-04T00:31:20;38.53;;;25.47;;
43487;SDS011;29078;41.932;25.554;2023-02-04T00:33:45;34.57;;;24.30;;
43487;SDS011;29078;41.932;25.554;2023-02-04T00:36:11;34.20;;;22.97;;
43487;SDS011;29078;41.932;25.554;2023-02-04T00:38:36;34.50;;;23.37;;
43487;SDS011;29078;41.932;25.554;2023-02-04T00:41:02;38.20;;;22.87;;
43487;SDS011;29078;41.932;25.554;2023-02-04T00:43:27;33.60;;;22.57;;
43487;SDS011;29078;41.932;25.554;2023-02-04T00:45:52;33.43;;;22.87;;
43487;SDS011;29078;41.932;25.554;2023-02-04T00:48:18;28.20;;;20.53;;
43487;SDS011;29078;41.932;25.554;2023-02-04T00:50:43;32.23;;;21.40;;
43487;SDS011;29078;41.932;25.554;2023-02-04T00:53:09;37.57;;;25.07;;
43487;SDS011;29078;41.932;25.554;2023-02-04T00:55:34;29.50;;;19.10;;
43487;SDS011;29078;41.932;25.554;2023-02-04T00:57:59;60.63;;;34.00;;
43487;SDS011;29078;41.932;25.554;2023-02-04T01:00:25;43.37;;;26.33;;
43487;SDS011;29078;41.932;25.554;2023-02-04T01:02:50;33.73;;;21.37;;
43487;SDS011;29078;41.932;25.554;2023-02-04T01:05:16;25.97;;;18.43;;
43487;SDS011;29078;41.932;25.554;2023-02-04T01:07:41;24.03;;;16.70;;
43487;SDS011;29078;41.932;25.554;2023-02-04T01:10:06;30.20;;;19.83;;
43487;SDS011;29078;41.932;25.554;2023-02-04T01:12:32;20.57;;;14.83;;
43487;SDS011;29078;41.932;25.554;2023-02-04T01:14:57;19.47;;;14.60;;
43487;SDS011;29078;41.932;25.554;2023-02-04T01:17:23;23.07;;;16.63;;
43487;SDS011;29078;41.932;25.554;2023-02-04T01:19:49;23.97;;;17.57;;
43487;SDS011;29078;41.932;25.554;2023-02-04T01:22:14;18.47;;;14.23;;
43487;SDS011;29078;41.932;25.554;2023-02-04T01:24:39;18.23;;;13.70;;
43487;SDS011;29078;41.932;25.554;2023-02-04T01:27:05;21.43;;;15.30;;
43487;SDS011;29078;41.932;25.554;2023-02-04T01:29:30;18.27;;;14.00;;
43487;SDS011;29078;41.932;25.554;2023-02-04T01:31:56;21.13;;;15.60;;
43487;SDS011;29078;41.932;25.554;2023-02-04T01:34:21;20.20;;;14.60;;
43487;SDS011;29078;41.932;25.554;2023-02-04T01:36:46;18.60;;;13.90;;
43487;SDS011;29078;41.932;25.554;2023-02-04T01:39:12;18.23;;;13.87;;
43487;SDS011;29078;41.932;25.554;2023-02-04T01:41:37;18.73;;;13.53;;
43487;SDS011;29078;41.932;25.554;2023-02-04T01:44:03;17.17;;;13.37;;
43487;SDS011;29078;41.932;25.554;2023-02-04T01:46:29;19.97;;;14.40;;
43487;SDS011;29078;41.932;25.554;2023-02-04T01:48:55;17.97;;;14.67;;
43487;SDS011;29078;41.932;25.554;2023-02-04T01:51:24;20.97;;;14.60;;
43487;SDS011;29078;41.932;25.554;2023-02-04T01:53:52;19.08;;;14.52;;
43487;SDS011;29078;41.932;25.554;2023-02-04T01:56:20;23.33;;;16.07;;
43487;SDS011;29078;41.932;25.554;2023-02-04T01:58:47;41.40;;;25.53;;
43487;SDS011;29078;41.932;25.554;2023-02-04T02:04:06;27.20;;;17.27;;
43487;SDS011;29078;41.932;25.554;2023-02-04T02:06:32;30.20;;;18.57;;
43487;SDS011;29078;41.932;25.554;2023-02-04T02:08:59;27.47;;;16.77;;
43487;SDS011;29078;41.932;25.554;2023-02-04T02:11:25;29.53;;;17.80;;
43487;SDS011;29078;41.932;25.554;2023-02-04T02:13:52;20.67;;;14.40;;
43487;SDS011;29078;41.932;25.554;2023-02-04T02:16:18;20.27;;;13.30;;
43487;SDS011;29078;41.932;25.554;2023-02-04T02:18:43;10.23;;;7.67;;
43487;SDS011;29078;41.932;25.554;2023-02-04T02:21:09;8.03;;;5.73;;
43487;SDS011;29078;41.932;25.554;2023-02-04T02:26:13;5.43;;;4.80;;
43487;SDS011;29078;41.932;25.554;2023-02-04T02:28:40;4.20;;;3.77;;
43487;SDS011;29078;41.932;25.554;2023-02-04T02:31:06;5.40;;;4.00;;
43487;SDS011;29078;41.932;25.554;2023-02-04T02:33:32;4.87;;;4.33;;
43487;SDS011;29078;41.932;25.554;2023-02-04T02:35:58;4.13;;;3.77;;
43487;SDS011;29078;41.932;25.554;2023-02-04T02:38:23;3.87;;;3.50;;
43487;SDS011;29078;41.932;25.554;2023-02-04T02:40:49;4.07;;;3.63;;
43487;SDS011;29078;41.932;25.554;2023-02-04T02:43:17;3.70;;;3.40;;
43487;SDS011;29078;41.932;25.554;2023-02-04T02:45:47;2.83;;;2.60;;
43487;SDS011;29078;41.932;25.554;2023-02-04T02:48:14;3.63;;;3.20;;
43487;SDS011;29078;41.932;25.554;2023-02-04T02:50:40;3.00;;;2.70;;
43487;SDS011;29078;41.932;25.554;2023-02-04T02:53:16;3.17;;;2.90;;
43487;SDS011;29078;41.932;25.554;2023-02-04T02:55:43;4.17;;;3.60;;
43487;SDS011;29078;41.932;25.554;2023-02-04T03:00:53;6.07;;;4.33;;
43487;SDS011;29078;41.932;25.554;2023-02-04T03:03:20;4.50;;;3.87;;
43487;SDS011;29078;41.932;25.554;2023-02-04T03:05:51;5.20;;;3.97;;
43487;SDS011;29078;41.932;25.554;2023-02-04T03:08:20;4.70;;;4.07;;
43487;SDS011;29078;41.932;25.554;2023-02-04T03:10:45;5.50;;;3.77;;
43487;SDS011;29078;41.932;25.554;2023-02-04T03:13:11;4.63;;;4.00;;
43487;SDS011;29078;41.932;25.554;2023-02-04T03:15:39;5.23;;;3.90;;
43487;SDS011;29078;41.932;25.554;2023-02-04T03:18:05;4.83;;;3.93;;
43487;SDS011;29078;41.932;25.554;2023-02-04T03:20:31;3.53;;;3.23;;
43487;SDS011;29078;41.932;25.554;2023-02-04T03:22:57;3.93;;;3.47;;
43487;SDS011;29078;41.932;25.554;2023-02-04T03:25:23;4.00;;;3.60;;
43487;SDS011;29078;41.932;25.554;2023-02-04T03:27:52;4.63;;;3.60;;
43487;SDS011;29078;41.932;25.554;2023-02-04T03:30:18;4.07;;;3.20;;
43487;SDS011;29078;41.932;25.554;2023-02-04T03:32:45;5.87;;;3.37;;
43487;SDS011;29078;41.932;25.554;2023-02-04T03:35:10;5.07;;;3.87;;
43487;SDS011;29078;41.932;25.554;2023-02-04T03:37:35;6.00;;;3.97;;
43487;SDS011;29078;41.932;25.554;2023-02-04T03:40:01;4.70;;;3.87;;
43487;SDS011;29078;41.932;25.554;2023-02-04T03:42:27;4.05;;;3.38;;
43487;SDS011;29078;41.932;25.554;2023-02-04T03:44:52;6.53;;;4.27;;
43487;SDS011;29078;41.932;25.554;2023-02-04T03:47:18;4.90;;;3.90;;
43487;SDS011;29078;41.932;25.554;2023-02-04T03:49:43;5.47;;;4.47;;
43487;SDS011;29078;41.932;25.554;2023-02-04T03:52:08;4.57;;;3.67;;
43487;SDS011;29078;41.932;25.554;2023-02-04T03:54:34;4.93;;;4.20;;
43487;SDS011;29078;41.932;25.554;2023-02-04T03:56:59;6.40;;;5.80;;
43487;SDS011;29078;41.932;25.554;2023-02-04T03:59:25;6.25;;;5.22;;
43487;SDS011;29078;41.932;25.554;2023-02-04T04:01:50;5.30;;;4.80;;
43487;SDS011;29078;41.932;25.554;2023-02-04T04:04:16;6.67;;;5.70;;
43487;SDS011;29078;41.932;25.554;2023-02-04T04:06:42;5.67;;;4.50;;
43487;SDS011;29078;41.932;25.554;2023-02-04T04:09:07;4.87;;;4.40;;
43487;SDS011;29078;41.932;25.554;2023-02-04T04:11:33;5.67;;;3.90;;
43487;SDS011;29078;41.932;25.554;2023-02-04T04:13:58;6.22;;;4.22;;
43487;SDS011;29078;41.932;25.554;2023-02-04T04:16:25;5.70;;;4.70;;
43487;SDS011;29078;41.932;25.554;2023-02-04T04:18:51;7.10;;;5.67;;
43487;SDS011;29078;41.932;25.554;2023-02-04T04:21:16;6.87;;;5.63;;
43487;SDS011;29078;41.932;25.554;2023-02-04T04:23:41;6.73;;;5.13;;
43487;SDS011;29078;41.932;25.554;2023-02-04T04:26:07;6.43;;;5.77;;
43487;SDS011;29078;41.932;25.554;2023-02-04T04:28:32;8.53;;;7.30;;
43487;SDS011;29078;41.932;25.554;2023-02-04T04:30:58;8.07;;;7.27;;
43487;SDS011;29078;41.932;25.554;2023-02-04T04:33:23;8.33;;;6.83;;
43487;SDS011;29078;41.932;25.554;2023-02-04T04:35:49;9.17;;;7.40;;
43487;SDS011;29078;41.932;25.554;2023-02-04T04:38:14;8.90;;;7.97;;
43487;SDS011;29078;41.932;25.554;2023-02-04T04:40:39;5.60;;;5.10;;
43487;SDS011;29078;41.932;25.554;2023-02-04T04:43:05;7.23;;;5.70;;
43487;SDS011;29078;41.932;25.554;2023-02-04T04:45:30;6.07;;;4.77;;
43487;SDS011;29078;41.932;25.554;2023-02-04T04:47:56;4.95;;;4.32;;
43487;SDS011;29078;41.932;25.554;2023-02-04T04:50:21;4.50;;;3.90;;
43487;SDS011;29078;41.932;25.554;2023-02-04T04:52:46;4.57;;;4.07;;
43487;SDS011;29078;41.932;25.554;2023-02-04T04:55:12;4.20;;;3.80;;
43487;SDS011;29078;41.932;25.554;2023-02-04T04:57:37;5.37;;;3.93;;
43487;SDS011;29078;41.932;25.554;2023-02-04T05:00:03;5.63;;;4.10;;
43487;SDS011;29078;41.932;25.554;2023-02-04T05:02:30;4.07;;;3.67;;
43487;SDS011;29078;41.932;25.554;2023-02-04T05:04:56;4.90;;;4.50;;
43487;SDS011;29078;41.932;25.554;2023-02-04T05:07:21;5.27;;;4.77;;
43487;SDS011;29078;41.932;25.554;2023-02-04T05:09:47;7.43;;;6.50;;
43487;SDS011;29078;41.932;25.554;2023-02-04T05:12:12;11.63;;;7.30;;
43487;SDS011;29078;41.932;25.554;2023-02-04T05:14:38;9.07;;;6.70;;
43487;SDS011;29078;41.932;25.554;2023-02-04T05:17:03;11.33;;;8.67;;
43487;SDS011;29078;41.932;25.554;2023-02-04T05:19:28;11.83;;;9.83;;
43487;SDS011;29078;41.932;25.554;2023-02-04T05:21:54;13.70;;;11.67;;
43487;SDS011;29078;41.932;25.554;2023-02-04T05:24:19;12.37;;;10.10;;
43487;SDS011;29078;41.932;25.554;2023-02-04T05:26:45;10.40;;;9.30;;
43487;SDS011;29078;41.932;25.554;2023-02-04T05:29:10;11.30;;;8.50;;
43487;SDS011;29078;41.932;25.554;2023-02-04T05:31:35;15.07;;;10.27;;
43487;SDS011;29078;41.932;25.554;2023-02-04T05:34:01;12.90;;;9.10;;
43487;SDS011;29078;41.932;25.554;2023-02-04T05:36:26;14.60;;;10.10;;
43487;SDS011;29078;41.932;25.554;2023-02-04T05:38:52;17.23;;;11.57;;
43487;SDS011;29078;41.932;25.554;2023-02-04T05:41:17;13.20;;;9.33;;
43487;SDS011;29078;41.932;25.554;2023-02-04T05:43:42;12.43;;;8.13;;
43487;SDS011;29078;41.932;25.554;2023-02-04T05:46:08;9.83;;;7.80;;
43487;SDS011;29078;41.932;25.554;2023-02-04T05:48:33;10.23;;;8.07;;
43487;SDS011;29078;41.932;25.554;2023-02-04T05:50:59;11.10;;;8.10;;
43487;SDS011;29078;41.932;25.554;2023-02-04T05:53:24;11.10;;;8.23;;
43487;SDS011;29078;41.932;25.554;2023-02-04T05:55:50;11.00;;;8.70;;
43487;SDS011;29078;41.932;25.554;2023-02-04T05:58:15;15.57;;;10.50;;
43487;SDS011;29078;41.932;25.554;2023-02-04T06:00:40;13.80;;;9.47;;
43487;SDS011;29078;41.932;25.554;2023-02-04T06:03:06;14.83;;;10.87;;
43487;SDS011;29078;41.932;25.554;2023-02-04T06:05:31;11.90;;;9.30;;
43487;SDS011;29078;41.932;25.554;2023-02-04T06:07:57;13.03;;;10.43;;
43487;SDS011;29078;41.932;25.554;2023-02-04T06:10:22;11.40;;;9.67;;
43487;SDS011;29078;41.932;25.554;2023-02-04T06:12:48;12.53;;;10.23;;
43487;SDS011;29078;41.932;25.554;2023-02-04T06:15:13;13.70;;;11.33;;
43487;SDS011;29078;41.932;25.554;2023-02-04T06:17:39;19.17;;;14.87;;
43487;SDS011;29078;41.932;25.554;2023-02-04T06:20:05;19.20;;;15.30;;
43487;SDS011;29078;41.932;25.554;2023-02-04T06:22:31;26.60;;;19.00;;
43487;SDS011;29078;41.932;25.554;2023-02-04T06:24:56;24.37;;;19.67;;
43487;SDS011;29078;41.932;25.554;2023-02-04T06:27:22;27.67;;;21.23;;
43487;SDS011;29078;41.932;25.554;2023-02-04T06:29:50;27.57;;;20.33;;
43487;SDS011;29078;41.932;25.554;2023-02-04T06:32:17;26.90;;;21.90;;
43487;SDS011;29078;41.932;25.554;2023-02-04T06:34:43;27.80;;;22.07;;
43487;SDS011;29078;41.932;25.554;2023-02-04T06:37:08;29.70;;;24.17;;
43487;SDS011;29078;41.932;25.554;2023-02-04T06:39:33;30.53;;;24.40;;
43487;SDS011;29078;41.932;25.554;2023-02-04T06:41:59;40.77;;;29.57;;
43487;SDS011;29078;41.932;25.554;2023-02-04T06:44:24;39.30;;;28.87;;
43487;SDS011;29078;41.932;25.554;2023-02-04T06:46:50;39.77;;;30.83;;
43487;SDS011;29078;41.932;25.554;2023-02-04T06:49:15;41.47;;;30.13;;
43487;SDS011;29078;41.932;25.554;2023-02-04T06:51:41;38.87;;;28.03;;
43487;SDS011;29078;41.932;25.554;2023-02-04T06:54:06;38.07;;;28.43;;
43487;SDS011;29078;41.932;25.554;2023-02-04T06:56:31;35.27;;;28.43;;
43487;SDS011;29078;41.932;25.554;2023-02-04T06:58:57;37.87;;;29.40;;
43487;SDS011;29078;41.932;25.554;2023-02-04T07:01:22;35.75;;;27.90;;
43487;SDS011;29078;41.932;25.554;2023-02-04T07:03:47;42.30;;;30.83;;
43487;SDS011;29078;41.932;25.554;2023-02-04T07:06:13;39.00;;;30.50;;
43487;SDS011;29078;41.932;25.554;2023-02-04T07:08:38;48.90;;;35.77;;
43487;SDS011;29078;41.932;25.554;2023-02-04T07:11:04;86.67;;;61.10;;
43487;SDS011;29078;41.932;25.554;2023-02-04T07:13:29;89.20;;;64.67;;
43487;SDS011;29078;41.932;25.554;2023-02-04T07:15:54;85.10;;;61.70;;
43487;SDS011;29078;41.932;25.554;2023-02-04T07:18:20;80.30;;;58.77;;
43487;SDS011;29078;41.932;25.554;2023-02-04T07:20:45;76.10;;;51.47;;
43487;SDS011;29078;41.932;25.554;2023-02-04T07:23:11;65.00;;;43.43;;
43487;SDS011;29078;41.932;25.554;2023-02-04T07:25:36;60.37;;;44.20;;
43487;SDS011;29078;41.932;25.554;2023-02-04T07:28:03;52.27;;;35.50;;
43487;SDS011;29078;41.932;25.554;2023-02-04T07:30:29;22.37;;;16.57;;
43487;SDS011;29078;41.932;25.554;2023-02-04T07:32:55;29.40;;;20.60;;
43487;SDS011;29078;41.932;25.554;2023-02-04T07:35:21;20.40;;;15.00;;
43487;SDS011;29078;41.932;25.554;2023-02-04T07:37:46;24.60;;;16.47;;
43487;SDS011;29078;41.932;25.554;2023-02-04T07:40:12;20.80;;;16.40;;
43487;SDS011;29078;41.932;25.554;2023-02-04T07:42:37;19.97;;;16.03;;
43487;SDS011;29078;41.932;25.554;2023-02-04T07:45:03;19.00;;;16.33;;
43487;SDS011;29078;41.932;25.554;2023-02-04T07:47:28;19.53;;;15.43;;
43487;SDS011;29078;41.932;25.554;2023-02-04T07:49:54;25.07;;;18.87;;
43487;SDS011;29078;41.932;25.554;2023-02-04T07:52:21;33.33;;;25.23;;
43487;SDS011;29078;41.932;25.554;2023-02-04T07:54:47;33.10;;;25.20;;
43487;SDS011;29078;41.932;25.554;2023-02-04T07:57:13;36.65;;;25.08;;
43487;SDS011;29078;41.932;25.554;2023-02-04T07:59:38;21.93;;;15.97;;
43487;SDS011;29078;41.932;25.554;2023-02-04T08:02:04;23.15;;;16.63;;
43487;SDS011;29078;41.932;25.554;2023-02-04T08:04:29;25.33;;;18.27;;
43487;SDS011;29078;41.932;25.554;2023-02-04T08:06:55;23.23;;;17.40;;
43487;SDS011;29078;41.932;25.554;2023-02-04T08:09:20;21.43;;;17.00;;
43487;SDS011;29078;41.932;25.554;2023-02-04T08:11:45;22.67;;;18.03;;
43487;SDS011;29078;41.932;25.554;2023-02-04T08:14:11;25.93;;;18.67;;
43487;SDS011;29078;41.932;25.554;2023-02-04T08:16:37;27.13;;;20.15;;
43487;SDS011;29078;41.932;25.554;2023-02-04T08:19:02;28.63;;;22.48;;
43487;SDS011;29078;41.932;25.554;2023-02-04T08:21:28;39.33;;;27.60;;
43487;SDS011;29078;41.932;25.554;2023-02-04T08:23:53;41.70;;;29.55;;
43487;SDS011;29078;41.932;25.554;2023-02-04T08:26:19;45.33;;;32.67;;
43487;SDS011;29078;41.932;25.554;2023-02-04T08:28:44;54.00;;;40.83;;
43487;SDS011;29078;41.932;25.554;2023-02-04T08:31:10;50.47;;;39.10;;
43487;SDS011;29078;41.932;25.554;2023-02-04T08:33:38;53.87;;;39.80;;
43487;SDS011;29078;41.932;25.554;2023-02-04T08:36:07;52.70;;;39.90;;
43487;SDS011;29078;41.932;25.554;2023-02-04T08:38:32;47.47;;;36.20;;
43487;SDS011;29078;41.932;25.554;2023-02-04T08:40:58;48.90;;;36.53;;
43487;SDS011;29078;41.932;25.554;2023-02-04T08:43:26;54.00;;;40.30;;
43487;SDS011;29078;41.932;25.554;2023-02-04T08:45:51;48.60;;;37.30;;
43487;SDS011;29078;41.932;25.554;2023-02-04T08:48:17;47.20;;;36.07;;
43487;SDS011;29078;41.932;25.554;2023-02-04T08:50:42;46.45;;;31.90;;
43487;SDS011;29078;41.932;25.554;2023-02-04T08:53:08;41.75;;;30.13;;
43487;SDS011;29078;41.932;25.554;2023-02-04T08:55:33;36.20;;;27.15;;
43487;SDS011;29078;41.932;25.554;2023-02-04T08:57:58;34.47;;;22.25;;
43487;SDS011;29078;41.932;25.554;2023-02-04T09:00:25;25.13;;;17.58;;
43487;SDS011;29078;41.932;25.554;2023-02-04T09:02:51;21.55;;;12.85;;
43487;SDS011;29078;41.932;25.554;2023-02-04T09:05:16;8.25;;;6.47;;
43487;SDS011;29078;41.932;25.554;2023-02-04T09:07:42;9.98;;;5.30;;
43487;SDS011;29078;41.932;25.554;2023-02-04T09:10:07;9.57;;;5.38;;
43487;SDS011;29078;41.932;25.554;2023-02-04T09:12:33;5.80;;;4.18;;
43487;SDS011;29078;41.932;25.554;2023-02-04T09:14:58;6.88;;;3.92;;
43487;SDS011;29078;41.932;25.554;2023-02-04T09:17:24;7.72;;;3.78;;
43487;SDS011;29078;41.932;25.554;2023-02-04T09:19:49;10.20;;;5.38;;
43487;SDS011;29078;41.932;25.554;2023-02-04T09:22:15;10.32;;;6.40;;
43487;SDS011;29078;41.932;25.554;2023-02-04T09:24:41;5.85;;;4.68;;
43487;SDS011;29078;41.932;25.554;2023-02-04T09:27:07;5.38;;;4.03;;
43487;SDS011;29078;41.932;25.554;2023-02-04T09:29:32;10.00;;;5.30;;
43487;SDS011;29078;41.932;25.554;2023-02-04T09:31:57;8.50;;;4.53;;
43487;SDS011;29078;41.932;25.554;2023-02-04T09:34:23;11.35;;;4.68;;
43487;SDS011;29078;41.932;25.554;2023-02-04T09:36:48;8.88;;;4.32;;
43487;SDS011;29078;41.932;25.554;2023-02-04T09:39:14;8.77;;;5.03;;
43487;SDS011;29078;41.932;25.554;2023-02-04T09:41:39;8.93;;;6.72;;
43487;SDS011;29078;41.932;25.554;2023-02-04T09:44:08;11.73;;;8.20;;
43487;SDS011;29078;41.932;25.554;2023-02-04T09:46:38;8.68;;;6.03;;
43487;SDS011;29078;41.932;25.554;2023-02-04T09:49:06;7.63;;;4.95;;
43487;SDS011;29078;41.932;25.554;2023-02-04T09:51:34;11.35;;;6.35;;
43487;SDS011;29078;41.932;25.554;2023-02-04T09:54:02;5.88;;;3.85;;
43487;SDS011;29078;41.932;25.554;2023-02-04T09:56:36;8.05;;;5.05;;
43487;SDS011;29078;41.932;25.554;2023-02-04T09:59:03;7.07;;;4.90;;
43487;SDS011;29078;41.932;25.554;2023-02-04T10:01:30;8.13;;;5.00;;
43487;SDS011;29078;41.932;25.554;2023-02-04T10:03:57;6.57;;;5.45;;
43487;SDS011;29078;41.932;25.554;2023-02-04T10:06:25;12.57;;;9.98;;
43487;SDS011;29078;41.932;25.554;2023-02-04T10:08:50;13.90;;;10.73;;
43487;SDS011;29078;41.932;25.554;2023-02-04T10:11:17;14.02;;;9.20;;
43487;SDS011;29078;41.932;25.554;2023-02-04T10:13:45;8.05;;;6.72;;
43487;SDS011;29078;41.932;25.554;2023-02-04T10:16:16;11.43;;;8.67;;
43487;SDS011;29078;41.932;25.554;2023-02-04T10:18:53;12.40;;;7.88;;
43487;SDS011;29078;41.932;25.554;2023-02-04T10:21:21;9.82;;;7.18;;
43487;SDS011;29078;41.932;25.554;2023-02-04T10:23:53;7.07;;;5.32;;
43487;SDS011;29078;41.932;25.554;2023-02-04T10:26:21;6.55;;;5.03;;
43487;SDS011;29078;41.932;25.554;2023-02-04T10:28:47;8.30;;;6.07;;
43487;SDS011;29078;41.932;25.554;2023-02-04T10:31:29;9.10;;;5.90;;
43487;SDS011;29078;41.932;25.554;2023-02-04T10:34:16;12.50;;;7.03;;
43487;SDS011;29078;41.932;25.554;2023-02-04T10:36:43;11.55;;;5.82;;
43487;SDS011;29078;41.932;25.554;2023-02-04T10:44:18;6.90;;;3.80;;
43487;SDS011;29078;41.932;25.554;2023-02-04T10:46:49;5.70;;;3.97;;
43487;SDS011;29078;41.932;25.554;2023-02-04T10:49:21;7.20;;;4.05;;
43487;SDS011;29078;41.932;25.554;2023-02-04T10:51:49;6.93;;;4.40;;
43487;SDS011;29078;41.932;25.554;2023-02-04T10:54:16;7.13;;;4.45;;
43487;SDS011;29078;41.932;25.554;2023-02-04T10:57:00;5.50;;;3.60;;
43487;SDS011;29078;41.932;25.554;2023-02-04T10:59:52;4.50;;;2.97;;
43487;SDS011;29078;41.932;25.554;2023-02-04T11:05:23;4.70;;;2.25;;
43487;SDS011;29078;41.932;25.554;2023-02-04T11:07:53;6.22;;;3.75;;
43487;SDS011;29078;41.932;25.554;2023-02-04T11:10:19;5.53;;;3.85;;
43487;SDS011;29078;41.932;25.554;2023-02-04T11:18:23;4.25;;;2.80;;
43487;SDS011;29078;41.932;25.554;2023-02-04T11:20:53;4.75;;;2.80;;
43487;SDS011;29078;41.932;25.554;2023-02-04T11:25:59;2.50;;;1.92;;
43487;SDS011;29078;41.932;25.554;2023-02-04T11:28:26;5.90;;;2.97;;
43487;SDS011;29078;41.932;25.554;2023-02-04T11:30:58;5.40;;;2.55;;
43487;SDS011;29078;41.932;25.554;2023-02-04T11:33:36;4.30;;;3.33;;
43487;SDS011;29078;41.932;25.554;2023-02-04T11:36:04;4.72;;;2.38;;
43487;SDS011;29078;41.932;25.554;2023-02-04T11:38:31;3.83;;;2.17;;
43487;SDS011;29078;41.932;25.554;2023-02-04T11:40:58;3.20;;;2.28;;
43487;SDS011;29078;41.932;25.554;2023-02-04T11:43:24;2.42;;;1.90;;
43487;SDS011;29078;41.932;25.554;2023-02-04T11:46:01;4.95;;;3.60;;
43487;SDS011;29078;41.932;25.554;2023-02-04T11:48:29;5.68;;;3.95;;
43487;SDS011;29078;41.932;25.554;2023-02-04T11:50:56;6.53;;;4.40;;
43487;SDS011;29078;41.932;25.554;2023-02-04T11:53:27;4.90;;;2.50;;
43487;SDS011;29078;41.932;25.554;2023-02-04T11:55:56;5.10;;;3.50;;
43487;SDS011;29078;41.932;25.554;2023-02-04T11:58:22;5.60;;;3.70;;
43487;SDS011;29078;41.932;25.554;2023-02-04T12:00:50;3.83;;;3.05;;
43487;SDS011;29078;41.932;25.554;2023-02-04T12:05:56;5.22;;;3.85;;
43487;SDS011;29078;41.932;25.554;2023-02-04T12:13:16;4.03;;;1.90;;
43487;SDS011;29078;41.932;25.554;2023-02-04T12:15:56;3.80;;;2.05;;
43487;SDS011;29078;41.932;25.554;2023-02-04T12:18:25;5.15;;;3.00;;
43487;SDS011;29078;41.932;25.554;2023-02-04T12:20:56;7.82;;;3.67;;
43487;SDS011;29078;41.932;25.554;2023-02-04T12:23:23;8.57;;;5.55;;
43487;SDS011;29078;41.932;25.554;2023-02-04T12:25:50;5.15;;;2.30;;
43487;SDS011;29078;41.932;25.554;2023-02-04T12:28:16;3.80;;;2.40;;
43487;SDS011;29078;41.932;25.554;2023-02-04T12:30:42;2.92;;;2.40;;
43487;SDS011;29078;41.932;25.554;2023-02-04T12:33:07;2.80;;;1.75;;
43487;SDS011;29078;41.932;25.554;2023-02-04T12:35:33;1.85;;;1.58;;
43487;SDS011;29078;41.932;25.554;2023-02-04T12:37:58;3.38;;;2.10;;
43487;SDS011;29078;41.932;25.554;2023-02-04T12:40:24;4.20;;;2.70;;
43487;SDS011;29078;41.932;25.554;2023-02-04T12:42:50;3.00;;;1.85;;
43487;SDS011;29078;41.932;25.554;2023-02-04T12:45:16;5.70;;;3.47;;
43487;SDS011;29078;41.932;25.554;2023-02-04T12:47:42;4.13;;;2.75;;
43487;SDS011;29078;41.932;25.554;2023-02-04T12:50:07;3.65;;;2.78;;
43487;SDS011;29078;41.932;25.554;2023-02-04T12:52:34;4.88;;;3.35;;
43487;SDS011;29078;41.932;25.554;2023-02-04T12:55:01;3.92;;;3.03;;
43487;SDS011;29078;41.932;25.554;2023-02-04T12:57:29;2.25;;;1.75;;
43487;SDS011;29078;41.932;25.554;2023-02-04T12:59:55;2.60;;;1.52;;
43487;SDS011;29078;41.932;25.554;2023-02-04T13:02:23;3.13;;;2.17;;
43487;SDS011;29078;41.932;25.554;2023-02-04T13:04:49;4.35;;;2.40;;
43487;SDS011;29078;41.932;25.554;2023-02-04T13:07:15;3.15;;;2.25;;
43487;SDS011;29078;41.932;25.554;2023-02-04T13:09:40;1.98;;;1.75;;
43487;SDS011;29078;41.932;25.554;2023-02-04T13:12:05;4.82;;;3.70;;
43487;SDS011;29078;41.932;25.554;2023-02-04T13:14:31;3.80;;;2.85;;
43487;SDS011;29078;41.932;25.554;2023-02-04T13:16:56;5.28;;;3.20;;
43487;SDS011;29078;41.932;25.554;2023-02-04T13:19:22;6.22;;;3.10;;
43487;SDS011;29078;41.932;25.554;2023-02-04T13:21:48;4.13;;;3.40;;
43487;SDS011;29078;41.932;25.554;2023-02-04T13:24:13;4.40;;;2.47;;
43487;SDS011;29078;41.932;25.554;2023-02-04T13:26:39;3.45;;;2.30;;
43487;SDS011;29078;41.932;25.554;2023-02-04T13:29:04;2.45;;;1.80;;
43487;SDS011;29078;41.932;25.554;2023-02-04T13:31:30;2.88;;;2.33;;
43487;SDS011;29078;41.932;25.554;2023-02-04T13:33:55;2.25;;;2.08;;
43487;SDS011;29078;41.932;25.554;2023-02-04T13:36:20;2.78;;;2.03;;
43487;SDS011;29078;41.932;25.554;2023-02-04T13:38:46;2.17;;;1.70;;
43487;SDS011;29078;41.932;25.554;2023-02-04T13:41:11;4.72;;;1.92;;
43487;SDS011;29078;41.932;25.554;2023-02-04T13:43:37;7.00;;;2.17;;
43487;SDS011;29078;41.932;25.554;2023-02-04T13:46:02;3.08;;;1.75;;
43487;SDS011;29078;41.932;25.554;2023-02-04T13:48:29;3.83;;;1.98;;
43487;SDS011;29078;41.932;25.554;2023-02-04T13:50:54;4.35;;;2.05;;
43487;SDS011;29078;41.932;25.554;2023-02-04T13:53:20;6.88;;;2.30;;
43487;SDS011;29078;41.932;25.554;2023-02-04T13:55:45;5.18;;;2.83;;
43487;SDS011;29078;41.932;25.554;2023-02-04T13:58:11;7.20;;;2.65;;
43487;SDS011;29078;41.932;25.554;2023-02-04T14:00:36;4.65;;;1.88;;
43487;SDS011;29078;41.932;25.554;2023-02-04T14:03:02;6.32;;;1.90;;
43487;SDS011;29078;41.932;25.554;2023-02-04T14:05:28;7.13;;;1.90;;
43487;SDS011;29078;41.932;25.554;2023-02-04T14:07:53;3.00;;;1.50;;
43487;SDS011;29078;41.932;25.554;2023-02-04T14:10:19;1.77;;;1.52;;
43487;SDS011;29078;41.932;25.554;2023-02-04T14:12:47;1.70;;;1.40;;
43487;SDS011;29078;41.932;25.554;2023-02-04T14:15:12;1.85;;;1.40;;
43487;SDS011;29078;41.932;25.554;2023-02-04T14:17:37;2.22;;;1.20;;
43487;SDS011;29078;41.932;25.554;2023-02-04T14:20:03;3.25;;;1.60;;
43487;SDS011;29078;41.932;25.554;2023-02-04T14:22:29;3.83;;;2.25;;
43487;SDS011;29078;41.932;25.554;2023-02-04T14:24:55;4.30;;;2.80;;
43487;SDS011;29078;41.932;25.554;2023-02-04T14:27:20;5.63;;;4.38;;
43487;SDS011;29078;41.932;25.554;2023-02-04T14:29:46;2.53;;;2.33;;
43487;SDS011;29078;41.932;25.554;2023-02-04T14:32:11;4.32;;;2.25;;
43487;SDS011;29078;41.932;25.554;2023-02-04T14:34:37;6.22;;;2.70;;
43487;SDS011;29078;41.932;25.554;2023-02-04T14:37:02;7.28;;;2.70;;
43487;SDS011;29078;41.932;25.554;2023-02-04T14:39:27;3.38;;;2.20;;
43487;SDS011;29078;41.932;25.554;2023-02-04T14:41:53;3.35;;;1.83;;
43487;SDS011;29078;41.932;25.554;2023-02-04T14:44:18;6.60;;;2.67;;
43487;SDS011;29078;41.932;25.554;2023-02-04T14:46:47;5.05;;;2.25;;
43487;SDS011;29078;41.932;25.554;2023-02-04T14:49:13;5.65;;;2.88;;
43487;SDS011;29078;41.932;25.554;2023-02-04T14:51:39;6.82;;;1.75;;